sensor_id;sensor_type;location;lat;lon;timestamp;P1;durP1;ratioP1;P2;durP2;ratioP2
1831;SDS011;1680;48.106;11.708;2023-04-24T00:01:22;1.60;;;1.30;;
1831;SDS011;1680;48.106;11.708;2023-04-24T00:03:51;1.63;;;1.40;;
1831;SDS011;1680;48.106;11.708;2023-04-24T00:06:20;1.63;;;1.53;;
1831;SDS011;1680;48.106;11.708;2023-04-24T00:08:48;2.20;;;1.47;;
1831;SDS011;1680;48.106;11.708;2023-04-24T00:11:15;1.80;;;1.70;;
1831;SDS011;1680;48.106;11.708;2023-04-24T00:13:43;1.73;;;1.63;;
1831;SDS011;1680;48.106;11.708;2023-04-24T00:16:10;4.47;;;1.60;;
1831;SDS011;1680;48.106;11.708;2023-04-24T00:18:37;1.87;;;1.67;;
1831;SDS011;1680;48.106;11.708;2023-04-24T00:21:04;2.60;;;1.43;;
1831;SDS011;1680;48.106;11.708;2023-04-24T00:23:33;1.57;;;1.47;;
1831;SDS011;1680;48.106;11.708;2023-04-24T00:26:00;2.40;;;1.13;;
1831;SDS011;1680;48.106;11.708;2023-04-24T00:28:28;1.50;;;1.40;;
1831;SDS011;1680;48.106;11.708;2023-04-24T00:30:55;1.70;;;1.60;;
1831;SDS011;1680;48.106;11.708;2023-04-24T00:33:22;2.10;;;1.90;;
1831;SDS011;1680;48.106;11.708;2023-04-24T00:35:49;2.00;;;1.87;;
1831;SDS011;1680;48.106;11.708;2023-04-24T00:38:16;2.13;;;1.80;;
1831;SDS011;1680;48.106;11.708;2023-04-24T00:40:45;2.23;;;1.90;;
1831;SDS011;1680;48.106;11.708;2023-04-24T00:43:12;2.10;;;1.73;;
1831;SDS011;1680;48.106;11.708;2023-04-24T00:45:40;2.10;;;1.30;;
1831;SDS011;1680;48.106;11.708;2023-04-24T00:48:07;4.33;;;1.63;;
1831;SDS011;1680;48.106;11.708;2023-04-24T00:50:35;2.10;;;1.70;;
1831;SDS011;1680;48.106;11.708;2023-04-24T00:53:03;1.33;;;1.23;;
1831;SDS011;1680;48.106;11.708;2023-04-24T00:55:30;1.37;;;1.27;;
1831;SDS011;1680;48.106;11.708;2023-04-24T00:57:59;2.13;;;1.20;;
1831;SDS011;1680;48.106;11.708;2023-04-24T01:00:27;1.37;;;1.27;;
1831;SDS011;1680;48.106;11.708;2023-04-24T01:02:55;1.30;;;1.20;;
1831;SDS011;1680;48.106;11.708;2023-04-24T01:05:24;1.27;;;1.10;;
1831;SDS011;1680;48.106;11.708;2023-04-24T01:07:54;1.40;;;1.10;;
1831;SDS011;1680;48.106;11.708;2023-04-24T01:10:22;1.30;;;1.20;;
1831;SDS011;1680;48.106;11.708;2023-04-24T01:12:52;1.30;;;1.20;;
1831;SDS011;1680;48.106;11.708;2023-04-24T01:15:21;1.00;;;1.00;;
1831;SDS011;1680;48.106;11.708;2023-04-24T01:17:48;1.30;;;0.83;;
1831;SDS011;1680;48.106;11.708;2023-04-24T01:20:16;1.43;;;0.80;;
1831;SDS011;1680;48.106;11.708;2023-04-24T01:22:45;1.17;;;1.07;;
1831;SDS011;1680;48.106;11.708;2023-04-24T01:25:12;1.73;;;1.00;;
1831;SDS011;1680;48.106;11.708;2023-04-24T01:27:40;1.10;;;1.00;;
1831;SDS011;1680;48.106;11.708;2023-04-24T01:30:07;2.00;;;1.00;;
1831;SDS011;1680;48.106;11.708;2023-04-24T01:32:35;1.10;;;1.00;;
1831;SDS011;1680;48.106;11.708;2023-04-24T01:35:04;1.10;;;0.70;;
1831;SDS011;1680;48.106;11.708;2023-04-24T01:37:32;0.93;;;0.93;;
1831;SDS011;1680;48.106;11.708;2023-04-24T01:40:00;1.00;;;1.00;;
1831;SDS011;1680;48.106;11.708;2023-04-24T01:42:30;0.80;;;0.80;;
1831;SDS011;1680;48.106;11.708;2023-04-24T01:44:58;0.70;;;0.70;;
1831;SDS011;1680;48.106;11.708;2023-04-24T01:47:26;1.20;;;1.10;;
1831;SDS011;1680;48.106;11.708;2023-04-24T01:49:53;0.90;;;0.90;;
1831;SDS011;1680;48.106;11.708;2023-04-24T01:52:21;0.77;;;0.77;;
1831;SDS011;1680;48.106;11.708;2023-04-24T01:54:48;1.00;;;1.00;;
1831;SDS011;1680;48.106;11.708;2023-04-24T01:57:17;0.90;;;0.67;;
1831;SDS011;1680;48.106;11.708;2023-04-24T01:59:44;1.00;;;0.90;;
1831;SDS011;1680;48.106;11.708;2023-04-24T02:02:11;1.00;;;0.67;;
1831;SDS011;1680;48.106;11.708;2023-04-24T02:04:39;0.80;;;0.80;;
1831;SDS011;1680;48.106;11.708;2023-04-24T02:07:06;1.27;;;0.90;;
1831;SDS011;1680;48.106;11.708;2023-04-24T02:09:33;1.17;;;0.70;;
1831;SDS011;1680;48.106;11.708;2023-04-24T02:12:00;1.03;;;1.00;;
1831;SDS011;1680;48.106;11.708;2023-04-24T02:14:29;0.60;;;0.60;;
1831;SDS011;1680;48.106;11.708;2023-04-24T02:17:01;1.33;;;0.80;;
1831;SDS011;1680;48.106;11.708;2023-04-24T02:19:30;0.60;;;0.60;;
1831;SDS011;1680;48.106;11.708;2023-04-24T02:21:57;0.70;;;0.70;;
1831;SDS011;1680;48.106;11.708;2023-04-24T02:24:24;1.23;;;0.80;;
1831;SDS011;1680;48.106;11.708;2023-04-24T02:26:51;0.73;;;0.70;;
1831;SDS011;1680;48.106;11.708;2023-04-24T02:29:19;1.33;;;1.10;;
1831;SDS011;1680;48.106;11.708;2023-04-24T02:31:47;1.20;;;0.80;;
1831;SDS011;1680;48.106;11.708;2023-04-24T02:34:15;0.80;;;0.80;;
1831;SDS011;1680;48.106;11.708;2023-04-24T02:36:42;0.70;;;0.70;;
1831;SDS011;1680;48.106;11.708;2023-04-24T02:39:09;0.60;;;0.60;;
1831;SDS011;1680;48.106;11.708;2023-04-24T02:41:36;0.80;;;0.80;;
1831;SDS011;1680;48.106;11.708;2023-04-24T02:44:04;0.60;;;0.60;;
1831;SDS011;1680;48.106;11.708;2023-04-24T02:46:31;2.60;;;0.70;;
1831;SDS011;1680;48.106;11.708;2023-04-24T02:48:59;0.90;;;0.80;;
1831;SDS011;1680;48.106;11.708;2023-04-24T02:51:26;0.90;;;0.70;;
1831;SDS011;1680;48.106;11.708;2023-04-24T02:53:54;0.70;;;0.70;;
1831;SDS011;1680;48.106;11.708;2023-04-24T02:56:21;0.70;;;0.70;;
1831;SDS011;1680;48.106;11.708;2023-04-24T02:58:48;0.80;;;0.77;;
1831;SDS011;1680;48.106;11.708;2023-04-24T03:01:18;0.70;;;0.70;;
1831;SDS011;1680;48.106;11.708;2023-04-24T03:03:45;0.80;;;0.80;;
1831;SDS011;1680;48.106;11.708;2023-04-24T03:06:14;1.20;;;0.60;;
1831;SDS011;1680;48.106;11.708;2023-04-24T03:08:41;0.67;;;0.67;;
1831;SDS011;1680;48.106;11.708;2023-04-24T03:11:08;0.80;;;0.80;;
1831;SDS011;1680;48.106;11.708;2023-04-24T03:13:35;0.80;;;0.80;;
1831;SDS011;1680;48.106;11.708;2023-04-24T03:16:03;1.70;;;0.70;;
1831;SDS011;1680;48.106;11.708;2023-04-24T03:18:33;0.60;;;0.60;;
1831;SDS011;1680;48.106;11.708;2023-04-24T03:21:01;1.27;;;0.70;;
1831;SDS011;1680;48.106;11.708;2023-04-24T03:23:29;1.03;;;0.63;;
1831;SDS011;1680;48.106;11.708;2023-04-24T03:25:57;1.03;;;0.70;;
1831;SDS011;1680;48.106;11.708;2023-04-24T03:28:27;0.80;;;0.70;;
1831;SDS011;1680;48.106;11.708;2023-04-24T03:30:54;0.70;;;0.60;;
1831;SDS011;1680;48.106;11.708;2023-04-24T03:33:21;0.80;;;0.80;;
1831;SDS011;1680;48.106;11.708;2023-04-24T03:35:48;0.77;;;0.70;;
1831;SDS011;1680;48.106;11.708;2023-04-24T03:38:17;0.70;;;0.70;;
1831;SDS011;1680;48.106;11.708;2023-04-24T03:40:45;0.70;;;0.70;;
1831;SDS011;1680;48.106;11.708;2023-04-24T03:43:12;0.90;;;0.70;;
1831;SDS011;1680;48.106;11.708;2023-04-24T03:45:40;0.70;;;0.63;;
1831;SDS011;1680;48.106;11.708;2023-04-24T03:48:10;0.97;;;0.70;;
1831;SDS011;1680;48.106;11.708;2023-04-24T03:50:40;0.73;;;0.70;;
1831;SDS011;1680;48.106;11.708;2023-04-24T03:53:07;1.10;;;0.93;;
1831;SDS011;1680;48.106;11.708;2023-04-24T03:55:34;1.53;;;0.70;;
1831;SDS011;1680;48.106;11.708;2023-04-24T03:58:03;0.60;;;0.60;;
1831;SDS011;1680;48.106;11.708;2023-04-24T04:00:31;0.97;;;0.80;;
1831;SDS011;1680;48.106;11.708;2023-04-24T04:02:58;0.60;;;0.60;;
1831;SDS011;1680;48.106;11.708;2023-04-24T04:05:26;1.07;;;0.90;;
1831;SDS011;1680;48.106;11.708;2023-04-24T04:07:53;0.70;;;0.70;;
1831;SDS011;1680;48.106;11.708;2023-04-24T04:10:20;0.80;;;0.80;;
1831;SDS011;1680;48.106;11.708;2023-04-24T04:12:47;0.97;;;0.90;;
1831;SDS011;1680;48.106;11.708;2023-04-24T04:15:16;0.90;;;0.80;;
1831;SDS011;1680;48.106;11.708;2023-04-24T04:17:43;1.73;;;1.20;;
1831;SDS011;1680;48.106;11.708;2023-04-24T04:20:12;0.93;;;0.80;;
1831;SDS011;1680;48.106;11.708;2023-04-24T04:22:39;1.10;;;0.80;;
1831;SDS011;1680;48.106;11.708;2023-04-24T04:25:07;0.97;;;0.90;;
1831;SDS011;1680;48.106;11.708;2023-04-24T04:27:34;0.80;;;0.80;;
1831;SDS011;1680;48.106;11.708;2023-04-24T04:30:01;0.80;;;0.80;;
1831;SDS011;1680;48.106;11.708;2023-04-24T04:32:31;1.80;;;0.93;;
1831;SDS011;1680;48.106;11.708;2023-04-24T04:34:59;0.90;;;0.90;;
1831;SDS011;1680;48.106;11.708;2023-04-24T04:37:28;0.93;;;0.90;;
1831;SDS011;1680;48.106;11.708;2023-04-24T04:39:56;0.60;;;0.60;;
1831;SDS011;1680;48.106;11.708;2023-04-24T04:42:24;0.70;;;0.70;;
1831;SDS011;1680;48.106;11.708;2023-04-24T04:44:52;0.80;;;0.80;;
1831;SDS011;1680;48.106;11.708;2023-04-24T04:47:20;0.80;;;0.80;;
1831;SDS011;1680;48.106;11.708;2023-04-24T04:49:51;1.43;;;0.70;;
1831;SDS011;1680;48.106;11.708;2023-04-24T04:52:18;0.87;;;0.87;;
1831;SDS011;1680;48.106;11.708;2023-04-24T04:54:49;0.87;;;0.80;;
1831;SDS011;1680;48.106;11.708;2023-04-24T04:57:17;0.70;;;0.70;;
1831;SDS011;1680;48.106;11.708;2023-04-24T04:59:44;0.70;;;0.70;;
1831;SDS011;1680;48.106;11.708;2023-04-24T05:02:11;1.10;;;1.00;;
1831;SDS011;1680;48.106;11.708;2023-04-24T05:04:38;1.17;;;0.80;;
1831;SDS011;1680;48.106;11.708;2023-04-24T05:07:07;0.97;;;0.67;;
1831;SDS011;1680;48.106;11.708;2023-04-24T05:09:34;0.83;;;0.80;;
1831;SDS011;1680;48.106;11.708;2023-04-24T05:12:01;0.87;;;0.83;;
1831;SDS011;1680;48.106;11.708;2023-04-24T05:14:28;1.43;;;0.70;;
1831;SDS011;1680;48.106;11.708;2023-04-24T05:16:56;0.73;;;0.73;;
1831;SDS011;1680;48.106;11.708;2023-04-24T05:19:23;0.70;;;0.70;;
1831;SDS011;1680;48.106;11.708;2023-04-24T05:21:50;0.80;;;0.80;;
1831;SDS011;1680;48.106;11.708;2023-04-24T05:24:19;0.87;;;0.83;;
1831;SDS011;1680;48.106;11.708;2023-04-24T05:26:46;0.80;;;0.80;;
1831;SDS011;1680;48.106;11.708;2023-04-24T05:29:13;1.70;;;1.07;;
1831;SDS011;1680;48.106;11.708;2023-04-24T05:31:40;0.77;;;0.77;;
1831;SDS011;1680;48.106;11.708;2023-04-24T05:34:07;0.70;;;0.70;;
1831;SDS011;1680;48.106;11.708;2023-04-24T05:36:35;0.60;;;0.60;;
1831;SDS011;1680;48.106;11.708;2023-04-24T05:39:02;0.70;;;0.70;;
1831;SDS011;1680;48.106;11.708;2023-04-24T05:41:32;0.80;;;0.80;;
1831;SDS011;1680;48.106;11.708;2023-04-24T05:44:00;1.57;;;0.70;;
1831;SDS011;1680;48.106;11.708;2023-04-24T05:46:27;0.77;;;0.77;;
1831;SDS011;1680;48.106;11.708;2023-04-24T05:48:54;0.77;;;0.77;;
1831;SDS011;1680;48.106;11.708;2023-04-24T05:51:21;0.80;;;0.80;;
1831;SDS011;1680;48.106;11.708;2023-04-24T05:53:48;0.73;;;0.73;;
1831;SDS011;1680;48.106;11.708;2023-04-24T05:56:15;0.83;;;0.83;;
1831;SDS011;1680;48.106;11.708;2023-04-24T05:58:44;0.77;;;0.73;;
1831;SDS011;1680;48.106;11.708;2023-04-24T06:01:12;0.80;;;0.80;;
1831;SDS011;1680;48.106;11.708;2023-04-24T06:03:40;0.70;;;0.70;;
1831;SDS011;1680;48.106;11.708;2023-04-24T06:06:08;1.27;;;0.90;;
1831;SDS011;1680;48.106;11.708;2023-04-24T06:08:35;0.70;;;0.70;;
1831;SDS011;1680;48.106;11.708;2023-04-24T06:11:02;0.60;;;0.60;;
1831;SDS011;1680;48.106;11.708;2023-04-24T06:13:29;1.80;;;0.77;;
1831;SDS011;1680;48.106;11.708;2023-04-24T06:15:57;1.10;;;0.80;;
1831;SDS011;1680;48.106;11.708;2023-04-24T06:18:25;0.70;;;0.70;;
1831;SDS011;1680;48.106;11.708;2023-04-24T06:20:52;0.80;;;0.80;;
1831;SDS011;1680;48.106;11.708;2023-04-24T06:23:20;0.70;;;0.70;;
1831;SDS011;1680;48.106;11.708;2023-04-24T06:25:47;0.70;;;0.70;;
1831;SDS011;1680;48.106;11.708;2023-04-24T06:28:15;0.60;;;0.60;;
1831;SDS011;1680;48.106;11.708;2023-04-24T06:30:43;0.80;;;0.80;;
1831;SDS011;1680;48.106;11.708;2023-04-24T06:33:12;0.73;;;0.73;;
1831;SDS011;1680;48.106;11.708;2023-04-24T06:35:39;0.70;;;0.70;;
1831;SDS011;1680;48.106;11.708;2023-04-24T06:38:09;1.53;;;0.70;;
1831;SDS011;1680;48.106;11.708;2023-04-24T06:40:36;0.70;;;0.70;;
1831;SDS011;1680;48.106;11.708;2023-04-24T06:43:03;0.60;;;0.60;;
1831;SDS011;1680;48.106;11.708;2023-04-24T06:45:31;0.60;;;0.60;;
1831;SDS011;1680;48.106;11.708;2023-04-24T06:47:58;1.93;;;0.70;;
1831;SDS011;1680;48.106;11.708;2023-04-24T06:50:27;0.90;;;0.70;;
1831;SDS011;1680;48.106;11.708;2023-04-24T06:52:54;0.70;;;0.70;;
1831;SDS011;1680;48.106;11.708;2023-04-24T06:55:21;0.90;;;0.80;;
1831;SDS011;1680;48.106;11.708;2023-04-24T06:57:48;1.10;;;0.60;;
1831;SDS011;1680;48.106;11.708;2023-04-24T07:00:15;0.70;;;0.70;;
1831;SDS011;1680;48.106;11.708;2023-04-24T07:02:43;0.90;;;0.63;;
1831;SDS011;1680;48.106;11.708;2023-04-24T07:05:10;1.37;;;0.60;;
1831;SDS011;1680;48.106;11.708;2023-04-24T07:07:39;0.70;;;0.70;;
1831;SDS011;1680;48.106;11.708;2023-04-24T07:10:08;0.60;;;0.60;;
1831;SDS011;1680;48.106;11.708;2023-04-24T07:12:35;0.87;;;0.70;;
1831;SDS011;1680;48.106;11.708;2023-04-24T07:15:03;1.27;;;0.70;;
1831;SDS011;1680;48.106;11.708;2023-04-24T07:17:31;0.63;;;0.63;;
1831;SDS011;1680;48.106;11.708;2023-04-24T07:19:58;0.60;;;0.60;;
1831;SDS011;1680;48.106;11.708;2023-04-24T07:22:25;1.00;;;0.60;;
1831;SDS011;1680;48.106;11.708;2023-04-24T07:24:54;2.00;;;0.60;;
1831;SDS011;1680;48.106;11.708;2023-04-24T07:27:21;1.10;;;0.70;;
1831;SDS011;1680;48.106;11.708;2023-04-24T07:29:48;0.63;;;0.63;;
1831;SDS011;1680;48.106;11.708;2023-04-24T07:32:15;0.60;;;0.60;;
1831;SDS011;1680;48.106;11.708;2023-04-24T07:34:42;1.17;;;0.60;;
1831;SDS011;1680;48.106;11.708;2023-04-24T07:37:09;0.70;;;0.70;;
1831;SDS011;1680;48.106;11.708;2023-04-24T07:39:37;1.70;;;0.60;;
1831;SDS011;1680;48.106;11.708;2023-04-24T07:42:05;0.70;;;0.67;;
1831;SDS011;1680;48.106;11.708;2023-04-24T07:44:35;0.90;;;0.67;;
1831;SDS011;1680;48.106;11.708;2023-04-24T07:47:02;0.70;;;0.70;;
1831;SDS011;1680;48.106;11.708;2023-04-24T07:49:30;0.60;;;0.60;;
1831;SDS011;1680;48.106;11.708;2023-04-24T07:51:59;0.80;;;0.80;;
1831;SDS011;1680;48.106;11.708;2023-04-24T07:54:27;0.90;;;0.90;;
1831;SDS011;1680;48.106;11.708;2023-04-24T07:56:54;0.60;;;0.60;;
1831;SDS011;1680;48.106;11.708;2023-04-24T07:59:26;1.03;;;0.50;;
1831;SDS011;1680;48.106;11.708;2023-04-24T08:01:53;1.00;;;0.90;;
1831;SDS011;1680;48.106;11.708;2023-04-24T08:04:21;0.80;;;0.70;;
1831;SDS011;1680;48.106;11.708;2023-04-24T08:06:48;1.53;;;0.60;;
1831;SDS011;1680;48.106;11.708;2023-04-24T08:09:15;0.70;;;0.70;;
1831;SDS011;1680;48.106;11.708;2023-04-24T08:11:42;0.60;;;0.60;;
1831;SDS011;1680;48.106;11.708;2023-04-24T08:14:10;1.23;;;0.70;;
1831;SDS011;1680;48.106;11.708;2023-04-24T08:16:39;0.80;;;0.60;;
1831;SDS011;1680;48.106;11.708;2023-04-24T08:19:07;0.67;;;0.67;;
1831;SDS011;1680;48.106;11.708;2023-04-24T08:21:34;1.93;;;1.07;;
1831;SDS011;1680;48.106;11.708;2023-04-24T08:24:01;0.80;;;0.60;;
1831;SDS011;1680;48.106;11.708;2023-04-24T08:26:30;0.70;;;0.70;;
1831;SDS011;1680;48.106;11.708;2023-04-24T08:28:57;1.27;;;0.77;;
1831;SDS011;1680;48.106;11.708;2023-04-24T08:31:24;1.23;;;0.60;;
1831;SDS011;1680;48.106;11.708;2023-04-24T08:33:53;0.73;;;0.73;;
1831;SDS011;1680;48.106;11.708;2023-04-24T08:36:20;0.50;;;0.50;;
1831;SDS011;1680;48.106;11.708;2023-04-24T08:38:47;0.80;;;0.80;;
1831;SDS011;1680;48.106;11.708;2023-04-24T08:41:15;0.70;;;0.60;;
1831;SDS011;1680;48.106;11.708;2023-04-24T08:43:46;0.70;;;0.70;;
1831;SDS011;1680;48.106;11.708;2023-04-24T08:46:13;1.00;;;0.70;;
1831;SDS011;1680;48.106;11.708;2023-04-24T08:48:42;0.83;;;0.80;;
1831;SDS011;1680;48.106;11.708;2023-04-24T08:51:11;1.60;;;0.80;;
1831;SDS011;1680;48.106;11.708;2023-04-24T08:53:38;0.93;;;0.90;;
1831;SDS011;1680;48.106;11.708;2023-04-24T08:56:06;0.90;;;0.90;;
1831;SDS011;1680;48.106;11.708;2023-04-24T08:58:34;1.20;;;1.00;;
1831;SDS011;1680;48.106;11.708;2023-04-24T09:01:02;1.33;;;1.10;;
1831;SDS011;1680;48.106;11.708;2023-04-24T09:03:31;1.27;;;1.17;;
1831;SDS011;1680;48.106;11.708;2023-04-24T09:05:59;1.80;;;1.43;;
1831;SDS011;1680;48.106;11.708;2023-04-24T09:08:29;1.20;;;1.10;;
1831;SDS011;1680;48.106;11.708;2023-04-24T09:11:02;4.30;;;1.63;;
1831;SDS011;1680;48.106;11.708;2023-04-24T09:13:30;1.50;;;1.40;;
1831;SDS011;1680;48.106;11.708;2023-04-24T09:15:58;1.67;;;1.57;;
1831;SDS011;1680;48.106;11.708;2023-04-24T09:18:25;1.30;;;1.20;;
1831;SDS011;1680;48.106;11.708;2023-04-24T09:20:59;1.50;;;1.40;;
1831;SDS011;1680;48.106;11.708;2023-04-24T09:23:29;1.67;;;1.57;;
1831;SDS011;1680;48.106;11.708;2023-04-24T09:26:01;2.53;;;1.40;;
1831;SDS011;1680;48.106;11.708;2023-04-24T09:28:31;2.53;;;1.80;;
1831;SDS011;1680;48.106;11.708;2023-04-24T09:31:02;1.90;;;1.30;;
1831;SDS011;1680;48.106;11.708;2023-04-24T09:33:30;2.70;;;1.53;;
1831;SDS011;1680;48.106;11.708;2023-04-24T09:35:57;1.20;;;1.10;;
1831;SDS011;1680;48.106;11.708;2023-04-24T09:38:36;2.50;;;1.50;;
1831;SDS011;1680;48.106;11.708;2023-04-24T09:41:07;2.80;;;1.60;;
1831;SDS011;1680;48.106;11.708;2023-04-24T09:43:35;2.00;;;1.50;;
1831;SDS011;1680;48.106;11.708;2023-04-24T09:46:04;1.40;;;1.30;;
1831;SDS011;1680;48.106;11.708;2023-04-24T09:48:33;1.33;;;1.10;;
1831;SDS011;1680;48.106;11.708;2023-04-24T09:51:01;1.67;;;1.40;;
1831;SDS011;1680;48.106;11.708;2023-04-24T09:53:32;4.10;;;1.57;;
1831;SDS011;1680;48.106;11.708;2023-04-24T09:56:05;2.17;;;1.30;;
1831;SDS011;1680;48.106;11.708;2023-04-24T09:58:34;1.93;;;1.40;;
1831;SDS011;1680;48.106;11.708;2023-04-24T10:01:02;1.60;;;1.50;;
1831;SDS011;1680;48.106;11.708;2023-04-24T10:03:29;1.77;;;1.50;;
1831;SDS011;1680;48.106;11.708;2023-04-24T10:05:58;2.10;;;1.67;;
1831;SDS011;1680;48.106;11.708;2023-04-24T10:08:25;1.70;;;1.60;;
1831;SDS011;1680;48.106;11.708;2023-04-24T10:10:59;1.50;;;1.40;;
1831;SDS011;1680;48.106;11.708;2023-04-24T10:13:28;1.50;;;1.40;;
1831;SDS011;1680;48.106;11.708;2023-04-24T10:15:55;1.33;;;1.23;;
1831;SDS011;1680;48.106;11.708;2023-04-24T10:18:23;2.07;;;1.47;;
1831;SDS011;1680;48.106;11.708;2023-04-24T10:20:51;2.73;;;1.63;;
1831;SDS011;1680;48.106;11.708;2023-04-24T10:23:21;1.53;;;1.40;;
1831;SDS011;1680;48.106;11.708;2023-04-24T10:25:48;2.03;;;1.50;;
1831;SDS011;1680;48.106;11.708;2023-04-24T10:28:17;2.30;;;1.43;;
1831;SDS011;1680;48.106;11.708;2023-04-24T10:30:47;1.80;;;1.40;;
1831;SDS011;1680;48.106;11.708;2023-04-24T10:33:15;1.93;;;1.70;;
1831;SDS011;1680;48.106;11.708;2023-04-24T10:35:44;1.70;;;1.60;;
1831;SDS011;1680;48.106;11.708;2023-04-24T10:38:15;1.93;;;1.70;;
1831;SDS011;1680;48.106;11.708;2023-04-24T10:40:45;2.07;;;1.63;;
1831;SDS011;1680;48.106;11.708;2023-04-24T10:43:13;2.10;;;1.90;;
1831;SDS011;1680;48.106;11.708;2023-04-24T10:48:28;2.03;;;1.60;;
1831;SDS011;1680;48.106;11.708;2023-04-24T10:50:57;2.80;;;1.60;;
1831;SDS011;1680;48.106;11.708;2023-04-24T10:53:27;2.80;;;1.50;;
1831;SDS011;1680;48.106;11.708;2023-04-24T10:55:57;2.20;;;1.57;;
1831;SDS011;1680;48.106;11.708;2023-04-24T10:58:35;2.43;;;1.90;;
1831;SDS011;1680;48.106;11.708;2023-04-24T11:01:04;3.13;;;1.80;;
1831;SDS011;1680;48.106;11.708;2023-04-24T11:03:33;2.00;;;1.80;;
1831;SDS011;1680;48.106;11.708;2023-04-24T11:06:02;3.80;;;1.60;;
1831;SDS011;1680;48.106;11.708;2023-04-24T11:08:37;1.37;;;1.27;;
1831;SDS011;1680;48.106;11.708;2023-04-24T11:11:08;1.40;;;1.27;;
1831;SDS011;1680;48.106;11.708;2023-04-24T11:16:33;1.27;;;1.17;;
1831;SDS011;1680;48.106;11.708;2023-04-24T11:19:10;1.70;;;1.60;;
1831;SDS011;1680;48.106;11.708;2023-04-24T11:21:46;1.60;;;1.50;;
1831;SDS011;1680;48.106;11.708;2023-04-24T11:24:23;1.40;;;1.30;;
1831;SDS011;1680;48.106;11.708;2023-04-24T11:26:51;1.83;;;1.57;;
1831;SDS011;1680;48.106;11.708;2023-04-24T11:29:20;1.50;;;1.40;;
1831;SDS011;1680;48.106;11.708;2023-04-24T11:31:49;1.33;;;1.23;;
1831;SDS011;1680;48.106;11.708;2023-04-24T11:34:17;1.50;;;1.40;;
1831;SDS011;1680;48.106;11.708;2023-04-24T11:36:45;1.50;;;1.37;;
1831;SDS011;1680;48.106;11.708;2023-04-24T11:39:13;1.60;;;1.50;;
1831;SDS011;1680;48.106;11.708;2023-04-24T11:41:41;2.40;;;2.30;;
1831;SDS011;1680;48.106;11.708;2023-04-24T11:44:08;1.80;;;1.70;;
1831;SDS011;1680;48.106;11.708;2023-04-24T11:46:36;2.53;;;1.50;;
1831;SDS011;1680;48.106;11.708;2023-04-24T11:49:06;2.20;;;2.00;;
1831;SDS011;1680;48.106;11.708;2023-04-24T11:51:33;16.17;;;3.53;;
1831;SDS011;1680;48.106;11.708;2023-04-24T11:54:01;1.77;;;1.67;;
1831;SDS011;1680;48.106;11.708;2023-04-24T11:56:28;4.77;;;2.00;;
1831;SDS011;1680;48.106;11.708;2023-04-24T11:58:55;4.97;;;1.87;;
1831;SDS011;1680;48.106;11.708;2023-04-24T12:01:22;3.93;;;1.83;;
1831;SDS011;1680;48.106;11.708;2023-04-24T12:03:50;8.03;;;2.43;;
1831;SDS011;1680;48.106;11.708;2023-04-24T12:06:27;3.00;;;1.90;;
1831;SDS011;1680;48.106;11.708;2023-04-24T12:08:54;2.10;;;1.60;;
1831;SDS011;1680;48.106;11.708;2023-04-24T12:11:22;5.33;;;1.60;;
1831;SDS011;1680;48.106;11.708;2023-04-24T12:13:50;2.03;;;1.47;;
1831;SDS011;1680;48.106;11.708;2023-04-24T12:16:18;2.00;;;1.53;;
1831;SDS011;1680;48.106;11.708;2023-04-24T12:18:45;1.40;;;1.30;;
1831;SDS011;1680;48.106;11.708;2023-04-24T12:21:18;2.10;;;1.50;;
1831;SDS011;1680;48.106;11.708;2023-04-24T12:23:48;1.97;;;1.83;;
1831;SDS011;1680;48.106;11.708;2023-04-24T12:26:16;1.57;;;1.47;;
1831;SDS011;1680;48.106;11.708;2023-04-24T12:28:46;2.57;;;1.43;;
1831;SDS011;1680;48.106;11.708;2023-04-24T12:31:15;1.60;;;1.50;;
1831;SDS011;1680;48.106;11.708;2023-04-24T12:33:43;1.60;;;1.50;;
1831;SDS011;1680;48.106;11.708;2023-04-24T12:36:11;1.50;;;1.40;;
1831;SDS011;1680;48.106;11.708;2023-04-24T12:38:43;1.70;;;1.47;;
1831;SDS011;1680;48.106;11.708;2023-04-24T12:41:13;1.67;;;1.57;;
1831;SDS011;1680;48.106;11.708;2023-04-24T12:43:50;1.60;;;1.50;;
1831;SDS011;1680;48.106;11.708;2023-04-24T12:46:18;1.30;;;1.20;;
1831;SDS011;1680;48.106;11.708;2023-04-24T12:48:46;4.93;;;1.43;;
1831;SDS011;1680;48.106;11.708;2023-04-24T12:51:13;4.30;;;1.60;;
1831;SDS011;1680;48.106;11.708;2023-04-24T12:53:40;1.50;;;1.40;;
1831;SDS011;1680;48.106;11.708;2023-04-24T12:56:07;2.10;;;1.90;;
1831;SDS011;1680;48.106;11.708;2023-04-24T12:58:35;2.33;;;1.70;;
1831;SDS011;1680;48.106;11.708;2023-04-24T13:01:03;2.00;;;1.80;;
1831;SDS011;1680;48.106;11.708;2023-04-24T13:03:30;2.40;;;1.87;;
1831;SDS011;1680;48.106;11.708;2023-04-24T13:05:57;2.03;;;1.60;;
1831;SDS011;1680;48.106;11.708;2023-04-24T13:08:24;2.40;;;1.63;;
1831;SDS011;1680;48.106;11.708;2023-04-24T13:10:51;1.60;;;1.50;;
1831;SDS011;1680;48.106;11.708;2023-04-24T13:13:19;4.80;;;1.73;;
1831;SDS011;1680;48.106;11.708;2023-04-24T13:15:47;1.60;;;1.50;;
1831;SDS011;1680;48.106;11.708;2023-04-24T13:18:14;1.80;;;1.70;;
1831;SDS011;1680;48.106;11.708;2023-04-24T13:20:41;3.40;;;2.13;;
1831;SDS011;1680;48.106;11.708;2023-04-24T13:23:09;1.97;;;1.87;;
1831;SDS011;1680;48.106;11.708;2023-04-24T13:25:36;2.23;;;1.70;;
1831;SDS011;1680;48.106;11.708;2023-04-24T13:28:04;2.00;;;1.70;;
1831;SDS011;1680;48.106;11.708;2023-04-24T13:30:31;1.70;;;1.60;;
1831;SDS011;1680;48.106;11.708;2023-04-24T13:32:59;1.70;;;1.60;;
1831;SDS011;1680;48.106;11.708;2023-04-24T13:35:29;2.23;;;1.70;;
1831;SDS011;1680;48.106;11.708;2023-04-24T13:37:57;2.00;;;1.80;;
1831;SDS011;1680;48.106;11.708;2023-04-24T13:40:26;2.10;;;1.70;;
1831;SDS011;1680;48.106;11.708;2023-04-24T13:42:53;1.80;;;1.70;;
1831;SDS011;1680;48.106;11.708;2023-04-24T13:45:21;2.43;;;1.80;;
1831;SDS011;1680;48.106;11.708;2023-04-24T13:47:50;1.93;;;1.70;;
1831;SDS011;1680;48.106;11.708;2023-04-24T13:50:19;3.87;;;1.60;;
1831;SDS011;1680;48.106;11.708;2023-04-24T13:52:47;2.23;;;2.00;;
1831;SDS011;1680;48.106;11.708;2023-04-24T13:55:14;2.10;;;1.90;;
1831;SDS011;1680;48.106;11.708;2023-04-24T13:57:41;1.93;;;1.73;;
1831;SDS011;1680;48.106;11.708;2023-04-24T14:00:12;2.83;;;2.50;;
1831;SDS011;1680;48.106;11.708;2023-04-24T14:02:40;2.60;;;2.17;;
1831;SDS011;1680;48.106;11.708;2023-04-24T14:05:07;2.53;;;2.00;;
1831;SDS011;1680;48.106;11.708;2023-04-24T14:07:37;2.43;;;1.70;;
1831;SDS011;1680;48.106;11.708;2023-04-24T14:10:04;3.67;;;2.23;;
1831;SDS011;1680;48.106;11.708;2023-04-24T14:12:32;2.23;;;1.70;;
1831;SDS011;1680;48.106;11.708;2023-04-24T14:14:59;3.53;;;1.97;;
1831;SDS011;1680;48.106;11.708;2023-04-24T14:17:27;2.33;;;2.13;;
1831;SDS011;1680;48.106;11.708;2023-04-24T14:19:55;2.53;;;2.30;;
1831;SDS011;1680;48.106;11.708;2023-04-24T14:22:24;3.10;;;2.43;;
1831;SDS011;1680;48.106;11.708;2023-04-24T14:24:55;2.17;;;1.97;;
1831;SDS011;1680;48.106;11.708;2023-04-24T14:27:24;3.20;;;1.70;;
1831;SDS011;1680;48.106;11.708;2023-04-24T14:29:51;2.10;;;1.50;;
1831;SDS011;1680;48.106;11.708;2023-04-24T14:32:18;2.47;;;2.00;;
1831;SDS011;1680;48.106;11.708;2023-04-24T14:34:46;2.93;;;1.90;;
1831;SDS011;1680;48.106;11.708;2023-04-24T14:37:13;2.70;;;2.00;;
1831;SDS011;1680;48.106;11.708;2023-04-24T14:39:42;2.20;;;2.00;;
1831;SDS011;1680;48.106;11.708;2023-04-24T14:42:11;2.03;;;1.83;;
1831;SDS011;1680;48.106;11.708;2023-04-24T14:44:38;3.10;;;2.27;;
1831;SDS011;1680;48.106;11.708;2023-04-24T14:47:06;1.73;;;1.63;;
1831;SDS011;1680;48.106;11.708;2023-04-24T14:49:33;2.10;;;1.90;;
1831;SDS011;1680;48.106;11.708;2023-04-24T14:52:00;2.93;;;2.10;;
1831;SDS011;1680;48.106;11.708;2023-04-24T14:54:28;2.00;;;1.90;;
1831;SDS011;1680;48.106;11.708;2023-04-24T14:56:55;1.70;;;1.60;;
1831;SDS011;1680;48.106;11.708;2023-04-24T14:59:24;3.00;;;2.37;;
1831;SDS011;1680;48.106;11.708;2023-04-24T15:01:51;2.30;;;2.10;;
1831;SDS011;1680;48.106;11.708;2023-04-24T15:04:22;3.80;;;2.00;;
1831;SDS011;1680;48.106;11.708;2023-04-24T15:06:50;2.10;;;1.90;;
1831;SDS011;1680;48.106;11.708;2023-04-24T15:09:18;2.20;;;2.10;;
1831;SDS011;1680;48.106;11.708;2023-04-24T15:11:47;2.63;;;2.00;;